N151H KTEB-TLPC
Flight info
| Callsign | N151H |
|---|---|
| Flight time | N/A |
| Altitude | 41000 |
| Route | ELVAE DCT COL DCT DIXIE Y481 KINGG/M086F410 DCT KINER L461 BOVIC M591 BDA/M086F430 M591 PIREX/M086F450 L462 DAWIN/N0481F450 L462 ANU UA312 FOF |
| Aircraft | C750/M-SBDE3FGHRWXY/S |
Departure
| Time | 2026-05-09 18:46 |
|---|---|
| Airport | Teterboro Airport (KTEB) |
Arrival
| Time | N/A |
|---|---|
| Airport | George F. L. Charles Airport (TLPC) |
| Time | Latitude | Longitude | Altitude | Speed | Heading |
|---|---|---|---|---|---|
| 2026-05-09 18:45 | 40.85303 | -74.06108 | 12 ft | 127 kts | 229° |
| 2026-05-09 18:46 | 40.84698 | -74.07062 | 436 ft | 133 kts | 234° |
| 2026-05-09 18:46 | 40.83955 | -74.07835 | 1024 ft | 138 kts | 205° |
| 2026-05-09 18:46 | 40.83078 | -74.08261 | 1714 ft | 133 kts | 204° |
| 2026-05-09 18:46 | 40.82200 | -74.08765 | 2126 ft | 149 kts | 209° |
| 2026-05-09 18:47 | 40.81242 | -74.09396 | 2699 ft | 156 kts | 211° |
| 2026-05-09 18:47 | 40.80307 | -74.10015 | 3552 ft | 139 kts | 207° |
| 2026-05-09 18:47 | 40.79516 | -74.10467 | 4542 ft | 121 kts | 206° |
| 2026-05-09 18:47 | 40.78632 | -74.10916 | 4843 ft | 151 kts | 205° |
| 2026-05-09 18:48 | 40.77559 | -74.11474 | 5099 ft | 181 kts | 206° |
| 2026-05-09 18:48 | 40.76309 | -74.12213 | 5421 ft | 210 kts | 208° |
| 2026-05-09 18:48 | 40.74930 | -74.13154 | 5781 ft | 236 kts | 211° |
| 2026-05-09 18:48 | 40.73474 | -74.14212 | 6641 ft | 236 kts | 212° |
| 2026-05-09 18:49 | 40.72035 | -74.15247 | 7621 ft | 238 kts | 211° |
| 2026-05-09 18:49 | 40.70563 | -74.16297 | 8561 ft | 242 kts | 212° |
| 2026-05-09 18:49 | 40.69077 | -74.17354 | 9540 ft | 244 kts | 212° |
| 2026-05-09 18:49 | 40.67567 | -74.18434 | 10284 ft | 251 kts | 213° |
| 2026-05-09 18:50 | 40.65957 | -74.19590 | 10438 ft | 277 kts | 213° |
| 2026-05-09 18:50 | 40.64174 | -74.20865 | 10456 ft | 304 kts | 212° |
| 2026-05-09 18:50 | 40.62271 | -74.22209 | 10942 ft | 312 kts | 212° |
| 2026-05-09 18:50 | 40.60359 | -74.23560 | 11639 ft | 314 kts | 212° |
| 2026-05-09 18:51 | 40.58421 | -74.24940 | 12253 ft | 318 kts | 213° |
| 2026-05-09 18:51 | 40.56312 | -74.25978 | 12813 ft | 331 kts | 200° |
| 2026-05-09 18:51 | 40.53992 | -74.26360 | 13430 ft | 343 kts | 187° |
| 2026-05-09 18:51 | 40.51601 | -74.26012 | 14007 ft | 357 kts | 174° |
| 2026-05-09 18:52 | 40.49189 | -74.24941 | 14600 ft | 365 kts | 166° |
| 2026-05-09 18:52 | 40.46842 | -74.23750 | 15145 ft | 368 kts | 166° |
| 2026-05-09 18:52 | 40.44438 | -74.22555 | 15699 ft | 371 kts | 166° |
| 2026-05-09 18:52 | 40.42007 | -74.21358 | 16289 ft | 374 kts | 166° |
| 2026-05-09 18:53 | 40.39561 | -74.20144 | 16871 ft | 378 kts | 166° |
| 2026-05-09 18:53 | 40.37079 | -74.18907 | 17452 ft | 382 kts | 165° |
| 2026-05-09 18:53 | 40.34571 | -74.17662 | 18065 ft | 386 kts | 165° |
| 2026-05-09 18:53 | 40.32056 | -74.16543 | 18539 ft | 386 kts | 172° |
| 2026-05-09 18:54 | 40.29416 | -74.16052 | 19148 ft | 379 kts | 182° |
| 2026-05-09 18:54 | 40.26779 | -74.16076 | 19758 ft | 379 kts | 187° |
| 2026-05-09 18:54 | 40.24129 | -74.16146 | 20374 ft | 382 kts | 186° |
| 2026-05-09 18:54 | 40.21454 | -74.16071 | 20956 ft | 389 kts | 180° |
| 2026-05-09 18:55 | 40.18754 | -74.15428 | 21571 ft | 399 kts | 172° |
| 2026-05-09 18:55 | 40.16109 | -74.14208 | 22185 ft | 409 kts | 162° |
| 2026-05-09 18:55 | 40.13582 | -74.12381 | 22793 ft | 420 kts | 153° |
| 2026-05-09 18:55 | 40.11300 | -74.10001 | 23352 ft | 432 kts | 143° |
| 2026-05-09 18:56 | 40.09281 | -74.07011 | 23865 ft | 443 kts | 133° |
| 2026-05-09 18:56 | 40.07666 | -74.03519 | 24334 ft | 455 kts | 121° |
| 2026-05-09 18:56 | 40.06536 | -73.99597 | 24778 ft | 466 kts | 110° |
| 2026-05-09 18:56 | 40.05720 | -73.95529 | 25219 ft | 470 kts | 109° |
| 2026-05-09 18:57 | 40.04889 | -73.91379 | 25668 ft | 473 kts | 109° |
| 2026-05-09 18:57 | 40.04036 | -73.87214 | 26117 ft | 477 kts | 110° |
| 2026-05-09 18:57 | 40.03176 | -73.83018 | 26561 ft | 480 kts | 109° |
| 2026-05-09 18:57 | 40.02321 | -73.78798 | 27017 ft | 484 kts | 109° |
| 2026-05-09 18:58 | 40.01454 | -73.74532 | 27474 ft | 487 kts | 110° |
| 2026-05-09 18:58 | 40.00575 | -73.70248 | 27938 ft | 490 kts | 110° |
| 2026-05-09 18:58 | 39.99688 | -73.65941 | 28398 ft | 494 kts | 110° |
| 2026-05-09 18:58 | 39.98802 | -73.61624 | 28842 ft | 498 kts | 110° |
| 2026-05-09 18:59 | 39.97904 | -73.57250 | 29295 ft | 501 kts | 110° |
| 2026-05-09 18:59 | 39.96994 | -73.52845 | 29733 ft | 504 kts | 110° |
| 2026-05-09 18:59 | 39.96075 | -73.48409 | 30155 ft | 508 kts | 110° |
| 2026-05-09 18:59 | 39.95149 | -73.43942 | 30454 ft | 513 kts | 110° |
| 2026-05-09 19:00 | 39.94212 | -73.39429 | 30741 ft | 518 kts | 110° |
| 2026-05-09 19:00 | 39.92327 | -73.30369 | 31536 ft | 523 kts | 110° |
| 2026-05-09 19:00 | 39.91364 | -73.25770 | 31921 ft | 526 kts | 109° |
| 2026-05-09 19:01 | 39.90396 | -73.21152 | 32327 ft | 529 kts | 109° |
| 2026-05-09 19:01 | 39.89424 | -73.16519 | 32738 ft | 531 kts | 109° |
| 2026-05-09 19:01 | 39.88443 | -73.11855 | 33188 ft | 534 kts | 109° |
| 2026-05-09 19:01 | 39.87466 | -73.07219 | 33605 ft | 537 kts | 109° |
| 2026-05-09 19:02 | 39.86467 | -73.02495 | 34015 ft | 539 kts | 109° |
| 2026-05-09 19:02 | 39.85469 | -72.97783 | 34419 ft | 540 kts | 109° |
| 2026-05-09 19:02 | 39.84469 | -72.93065 | 34884 ft | 540 kts | 109° |
| 2026-05-09 19:02 | 39.83465 | -72.88345 | 35353 ft | 540 kts | 109° |
| 2026-05-09 19:03 | 39.82471 | -72.83699 | 35833 ft | 539 kts | 109° |
| 2026-05-09 19:03 | 39.81304 | -72.79073 | 36291 ft | 537 kts | 113° |
| 2026-05-09 19:03 | 39.80034 | -72.74489 | 36797 ft | 535 kts | 114° |
| 2026-05-09 19:03 | 39.78774 | -72.69982 | 37299 ft | 535 kts | 113° |
| 2026-05-09 19:04 | 39.77548 | -72.65413 | 37835 ft | 534 kts | 112° |
| 2026-05-09 19:04 | 39.76336 | -72.60847 | 38378 ft | 533 kts | 112° |
| 2026-05-09 19:04 | 39.75097 | -72.56308 | 38862 ft | 532 kts | 113° |
| 2026-05-09 19:04 | 39.74265 | -72.53307 | 39163 ft | 531 kts | 113° |
| 2026-05-09 19:05 | 39.72621 | -72.47322 | 39753 ft | 529 kts | 113° |
| 2026-05-09 19:05 | 39.71794 | -72.44269 | 40040 ft | 529 kts | 113° |
| 2026-05-09 19:05 | 39.70579 | -72.39810 | 40458 ft | 528 kts | 113° |
| 2026-05-09 19:05 | 39.69344 | -72.35333 | 40871 ft | 527 kts | 114° |
| 2026-05-09 19:06 | 39.68098 | -72.30831 | 41075 ft | 532 kts | 114° |
| 2026-05-09 19:06 | 39.66839 | -72.26263 | 41061 ft | 542 kts | 113° |
| 2026-05-09 19:06 | 39.63553 | -72.17430 | 41059 ft | 549 kts | 129° |
| 2026-05-09 19:07 | 39.58580 | -72.09898 | 41091 ft | 551 kts | 142° |
| 2026-05-09 19:07 | 39.53038 | -72.02984 | 41078 ft | 558 kts | 140° |
| 2026-05-09 19:08 | 39.47858 | -71.95413 | 41094 ft | 561 kts | 137° |
| 2026-05-09 19:08 | 39.42496 | -71.88108 | 41086 ft | 558 kts | 141° |
| 2026-05-09 19:09 | 39.37208 | -71.80751 | 41081 ft | 564 kts | 138° |
| 2026-05-09 19:09 | 39.31859 | -71.73339 | 41082 ft | 561 kts | 140° |
| 2026-05-09 19:10 | 39.26510 | -71.66016 | 41087 ft | 563 kts | 139° |
| 2026-05-09 19:10 | 39.21169 | -71.58617 | 41087 ft | 562 kts | 140° |
| 2026-05-09 19:11 | 39.15523 | -71.51786 | 41096 ft | 557 kts | 145° |
| 2026-05-09 19:11 | 39.13556 | -71.49555 | 41097 ft | 557 kts | 145° |